sensor_id;sensor_type;location;lat;lon;timestamp;P1;durP1;ratioP1;P2;durP2;ratioP2
32535;SDS011;18974;50.838;4.636;2023-06-14T00:00:13;7.00;;;5.00;;
32535;SDS011;18974;50.838;4.636;2023-06-14T00:02:39;7.15;;;5.28;;
32535;SDS011;18974;50.838;4.636;2023-06-14T00:05:06;10.30;;;4.68;;
32535;SDS011;18974;50.838;4.636;2023-06-14T00:07:33;6.93;;;5.13;;
32535;SDS011;18974;50.838;4.636;2023-06-14T00:10:08;7.53;;;5.32;;
32535;SDS011;18974;50.838;4.636;2023-06-14T00:12:34;9.13;;;4.97;;
32535;SDS011;18974;50.838;4.636;2023-06-14T00:15:01;9.85;;;5.20;;
32535;SDS011;18974;50.838;4.636;2023-06-14T00:17:27;10.00;;;4.90;;
32535;SDS011;18974;50.838;4.636;2023-06-14T00:19:56;7.28;;;4.90;;
32535;SDS011;18974;50.838;4.636;2023-06-14T00:22:23;9.80;;;5.25;;
32535;SDS011;18974;50.838;4.636;2023-06-14T00:24:53;7.45;;;5.43;;
32535;SDS011;18974;50.838;4.636;2023-06-14T00:27:18;13.73;;;5.70;;
32535;SDS011;18974;50.838;4.636;2023-06-14T00:29:44;10.98;;;5.88;;
32535;SDS011;18974;50.838;4.636;2023-06-14T00:32:10;6.85;;;4.78;;
32535;SDS011;18974;50.838;4.636;2023-06-14T00:34:35;7.20;;;5.00;;
32535;SDS011;18974;50.838;4.636;2023-06-14T00:37:01;12.65;;;5.28;;
32535;SDS011;18974;50.838;4.636;2023-06-14T00:39:27;8.30;;;5.03;;
32535;SDS011;18974;50.838;4.636;2023-06-14T00:41:52;6.05;;;5.15;;
32535;SDS011;18974;50.838;4.636;2023-06-14T00:44:18;9.52;;;4.90;;
32535;SDS011;18974;50.838;4.636;2023-06-14T00:46:45;7.30;;;5.57;;
32535;SDS011;18974;50.838;4.636;2023-06-14T00:49:11;9.52;;;5.50;;
32535;SDS011;18974;50.838;4.636;2023-06-14T00:51:40;10.32;;;5.30;;
32535;SDS011;18974;50.838;4.636;2023-06-14T00:54:06;8.93;;;5.15;;
32535;SDS011;18974;50.838;4.636;2023-06-14T00:56:31;9.00;;;5.30;;
32535;SDS011;18974;50.838;4.636;2023-06-14T00:58:57;10.85;;;5.18;;
32535;SDS011;18974;50.838;4.636;2023-06-14T01:01:23;8.35;;;5.03;;
32535;SDS011;18974;50.838;4.636;2023-06-14T01:03:49;7.50;;;5.55;;
32535;SDS011;18974;50.838;4.636;2023-06-14T01:09:10;8.27;;;5.32;;
32535;SDS011;18974;50.838;4.636;2023-06-14T01:14:21;10.70;;;5.28;;
32535;SDS011;18974;50.838;4.636;2023-06-14T01:16:48;8.60;;;5.43;;
32535;SDS011;18974;50.838;4.636;2023-06-14T01:19:18;6.88;;;5.47;;
32535;SDS011;18974;50.838;4.636;2023-06-14T01:21:48;7.25;;;5.32;;
32535;SDS011;18974;50.838;4.636;2023-06-14T01:24:16;8.55;;;5.57;;
32535;SDS011;18974;50.838;4.636;2023-06-14T01:26:44;11.77;;;6.05;;
32535;SDS011;18974;50.838;4.636;2023-06-14T01:29:12;6.07;;;5.00;;
32535;SDS011;18974;50.838;4.636;2023-06-14T01:31:42;10.20;;;5.13;;
32535;SDS011;18974;50.838;4.636;2023-06-14T01:34:08;8.02;;;5.43;;
32535;SDS011;18974;50.838;4.636;2023-06-14T01:36:35;10.70;;;5.95;;
32535;SDS011;18974;50.838;4.636;2023-06-14T01:39:05;12.32;;;5.80;;
32535;SDS011;18974;50.838;4.636;2023-06-14T01:41:31;12.73;;;6.07;;
32535;SDS011;18974;50.838;4.636;2023-06-14T01:43:57;8.95;;;5.53;;
32535;SDS011;18974;50.838;4.636;2023-06-14T01:46:24;10.52;;;5.53;;
32535;SDS011;18974;50.838;4.636;2023-06-14T01:48:50;7.97;;;5.30;;
32535;SDS011;18974;50.838;4.636;2023-06-14T01:51:16;9.60;;;5.18;;
32535;SDS011;18974;50.838;4.636;2023-06-14T01:53:42;9.80;;;5.60;;
32535;SDS011;18974;50.838;4.636;2023-06-14T01:56:08;9.35;;;5.78;;
32535;SDS011;18974;50.838;4.636;2023-06-14T01:58:33;8.52;;;6.03;;
32535;SDS011;18974;50.838;4.636;2023-06-14T02:01:00;11.35;;;5.43;;
32535;SDS011;18974;50.838;4.636;2023-06-14T02:03:26;7.57;;;5.40;;
32535;SDS011;18974;50.838;4.636;2023-06-14T02:05:52;6.28;;;5.50;;
32535;SDS011;18974;50.838;4.636;2023-06-14T02:08:18;10.93;;;5.45;;
32535;SDS011;18974;50.838;4.636;2023-06-14T02:10:43;10.68;;;6.35;;
32535;SDS011;18974;50.838;4.636;2023-06-14T02:13:09;10.60;;;6.03;;
32535;SDS011;18974;50.838;4.636;2023-06-14T02:15:35;9.45;;;5.82;;
32535;SDS011;18974;50.838;4.636;2023-06-14T02:18:04;9.93;;;6.00;;
32535;SDS011;18974;50.838;4.636;2023-06-14T02:20:30;8.73;;;5.93;;
32535;SDS011;18974;50.838;4.636;2023-06-14T02:22:56;7.07;;;6.10;;
32535;SDS011;18974;50.838;4.636;2023-06-14T02:25:22;10.70;;;6.53;;
32535;SDS011;18974;50.838;4.636;2023-06-14T02:27:48;10.75;;;6.07;;
32535;SDS011;18974;50.838;4.636;2023-06-14T02:30:13;8.35;;;6.32;;
32535;SDS011;18974;50.838;4.636;2023-06-14T02:32:40;11.30;;;6.47;;
32535;SDS011;18974;50.838;4.636;2023-06-14T02:35:07;7.95;;;6.10;;
32535;SDS011;18974;50.838;4.636;2023-06-14T02:37:33;10.60;;;6.43;;
32535;SDS011;18974;50.838;4.636;2023-06-14T02:40:00;9.10;;;6.22;;
32535;SDS011;18974;50.838;4.636;2023-06-14T02:42:25;12.85;;;6.78;;
32535;SDS011;18974;50.838;4.636;2023-06-14T02:44:51;12.23;;;6.40;;
32535;SDS011;18974;50.838;4.636;2023-06-14T02:47:20;11.45;;;5.80;;
32535;SDS011;18974;50.838;4.636;2023-06-14T02:49:45;9.88;;;5.88;;
32535;SDS011;18974;50.838;4.636;2023-06-14T02:52:11;9.25;;;6.82;;
32535;SDS011;18974;50.838;4.636;2023-06-14T02:54:37;9.65;;;6.20;;
32535;SDS011;18974;50.838;4.636;2023-06-14T02:57:03;11.30;;;6.43;;
32535;SDS011;18974;50.838;4.636;2023-06-14T02:59:28;9.95;;;7.13;;
32535;SDS011;18974;50.838;4.636;2023-06-14T03:01:54;11.68;;;6.97;;
32535;SDS011;18974;50.838;4.636;2023-06-14T03:04:20;13.23;;;6.53;;
32535;SDS011;18974;50.838;4.636;2023-06-14T03:06:46;11.10;;;6.88;;
32535;SDS011;18974;50.838;4.636;2023-06-14T03:09:15;13.52;;;6.35;;
32535;SDS011;18974;50.838;4.636;2023-06-14T03:11:41;12.43;;;7.28;;
32535;SDS011;18974;50.838;4.636;2023-06-14T03:14:06;10.00;;;6.55;;
32535;SDS011;18974;50.838;4.636;2023-06-14T03:16:33;7.63;;;6.28;;
32535;SDS011;18974;50.838;4.636;2023-06-14T03:18:59;9.07;;;6.63;;
32535;SDS011;18974;50.838;4.636;2023-06-14T03:21:24;10.95;;;6.68;;
32535;SDS011;18974;50.838;4.636;2023-06-14T03:23:51;10.88;;;6.53;;
32535;SDS011;18974;50.838;4.636;2023-06-14T03:26:18;10.43;;;6.47;;
32535;SDS011;18974;50.838;4.636;2023-06-14T03:28:46;10.82;;;6.80;;
32535;SDS011;18974;50.838;4.636;2023-06-14T03:31:14;7.95;;;6.30;;
32535;SDS011;18974;50.838;4.636;2023-06-14T03:33:41;10.80;;;6.55;;
32535;SDS011;18974;50.838;4.636;2023-06-14T03:36:07;10.90;;;7.10;;
32535;SDS011;18974;50.838;4.636;2023-06-14T03:38:33;11.88;;;6.78;;
32535;SDS011;18974;50.838;4.636;2023-06-14T03:40:59;14.52;;;7.97;;
32535;SDS011;18974;50.838;4.636;2023-06-14T03:43:25;9.52;;;6.70;;
32535;SDS011;18974;50.838;4.636;2023-06-14T03:45:50;11.38;;;7.22;;
32535;SDS011;18974;50.838;4.636;2023-06-14T03:48:16;10.35;;;7.07;;
32535;SDS011;18974;50.838;4.636;2023-06-14T03:50:42;16.50;;;7.65;;
32535;SDS011;18974;50.838;4.636;2023-06-14T03:53:08;22.98;;;6.93;;
32535;SDS011;18974;50.838;4.636;2023-06-14T03:55:33;10.45;;;7.20;;
32535;SDS011;18974;50.838;4.636;2023-06-14T03:57:59;10.80;;;7.05;;
32535;SDS011;18974;50.838;4.636;2023-06-14T04:00:25;10.35;;;6.60;;
32535;SDS011;18974;50.838;4.636;2023-06-14T04:02:51;15.15;;;8.55;;
32535;SDS011;18974;50.838;4.636;2023-06-14T04:05:18;13.73;;;7.45;;
32535;SDS011;18974;50.838;4.636;2023-06-14T04:07:44;10.52;;;7.55;;
32535;SDS011;18974;50.838;4.636;2023-06-14T04:10:11;16.10;;;7.90;;
32535;SDS011;18974;50.838;4.636;2023-06-14T04:12:38;10.75;;;6.38;;
32535;SDS011;18974;50.838;4.636;2023-06-14T04:15:04;10.40;;;6.75;;
32535;SDS011;18974;50.838;4.636;2023-06-14T04:17:33;12.65;;;7.40;;
32535;SDS011;18974;50.838;4.636;2023-06-14T04:20:00;8.35;;;6.20;;
32535;SDS011;18974;50.838;4.636;2023-06-14T04:22:26;11.32;;;7.25;;
32535;SDS011;18974;50.838;4.636;2023-06-14T04:24:55;13.45;;;7.10;;
32535;SDS011;18974;50.838;4.636;2023-06-14T04:27:24;8.52;;;6.82;;
32535;SDS011;18974;50.838;4.636;2023-06-14T04:29:51;10.75;;;7.28;;
32535;SDS011;18974;50.838;4.636;2023-06-14T04:32:25;10.57;;;7.30;;
32535;SDS011;18974;50.838;4.636;2023-06-14T04:34:53;10.48;;;6.95;;
32535;SDS011;18974;50.838;4.636;2023-06-14T04:37:19;11.80;;;7.00;;
32535;SDS011;18974;50.838;4.636;2023-06-14T04:39:46;17.40;;;8.02;;
32535;SDS011;18974;50.838;4.636;2023-06-14T04:42:13;13.18;;;7.50;;
32535;SDS011;18974;50.838;4.636;2023-06-14T04:44:42;11.75;;;6.95;;
32535;SDS011;18974;50.838;4.636;2023-06-14T04:47:08;11.50;;;6.93;;
32535;SDS011;18974;50.838;4.636;2023-06-14T04:49:37;21.33;;;7.88;;
32535;SDS011;18974;50.838;4.636;2023-06-14T04:52:05;11.70;;;7.10;;
32535;SDS011;18974;50.838;4.636;2023-06-14T04:54:31;12.65;;;7.63;;
32535;SDS011;18974;50.838;4.636;2023-06-14T04:56:58;15.50;;;7.35;;
32535;SDS011;18974;50.838;4.636;2023-06-14T04:59:23;10.73;;;6.95;;
32535;SDS011;18974;50.838;4.636;2023-06-14T05:01:49;14.45;;;6.55;;
32535;SDS011;18974;50.838;4.636;2023-06-14T05:04:15;13.23;;;7.25;;
32535;SDS011;18974;50.838;4.636;2023-06-14T05:06:42;11.55;;;6.50;;
32535;SDS011;18974;50.838;4.636;2023-06-14T05:09:13;8.90;;;6.50;;
32535;SDS011;18974;50.838;4.636;2023-06-14T05:11:40;10.52;;;7.32;;
32535;SDS011;18974;50.838;4.636;2023-06-14T05:14:07;12.85;;;7.13;;
32535;SDS011;18974;50.838;4.636;2023-06-14T05:16:33;13.02;;;8.13;;
32535;SDS011;18974;50.838;4.636;2023-06-14T05:18:59;10.35;;;7.35;;
32535;SDS011;18974;50.838;4.636;2023-06-14T05:21:24;11.88;;;7.25;;
32535;SDS011;18974;50.838;4.636;2023-06-14T05:23:50;14.40;;;7.15;;
32535;SDS011;18974;50.838;4.636;2023-06-14T05:26:16;11.45;;;7.95;;
32535;SDS011;18974;50.838;4.636;2023-06-14T05:28:42;12.35;;;7.47;;
32535;SDS011;18974;50.838;4.636;2023-06-14T05:31:07;15.88;;;8.10;;
32535;SDS011;18974;50.838;4.636;2023-06-14T05:33:33;11.85;;;7.15;;
32535;SDS011;18974;50.838;4.636;2023-06-14T05:35:59;12.63;;;7.78;;
32535;SDS011;18974;50.838;4.636;2023-06-14T05:38:24;14.13;;;7.30;;
32535;SDS011;18974;50.838;4.636;2023-06-14T05:40:50;10.32;;;7.25;;
32535;SDS011;18974;50.838;4.636;2023-06-14T05:43:16;9.20;;;7.47;;
32535;SDS011;18974;50.838;4.636;2023-06-14T05:45:41;10.77;;;7.20;;
32535;SDS011;18974;50.838;4.636;2023-06-14T05:48:07;11.48;;;7.60;;
32535;SDS011;18974;50.838;4.636;2023-06-14T05:50:33;11.75;;;7.30;;
32535;SDS011;18974;50.838;4.636;2023-06-14T05:52:58;11.88;;;8.27;;
32535;SDS011;18974;50.838;4.636;2023-06-14T05:55:24;18.92;;;7.88;;
32535;SDS011;18974;50.838;4.636;2023-06-14T05:57:50;9.90;;;7.60;;
32535;SDS011;18974;50.838;4.636;2023-06-14T06:00:16;12.00;;;7.43;;
32535;SDS011;18974;50.838;4.636;2023-06-14T06:02:43;19.08;;;8.32;;
32535;SDS011;18974;50.838;4.636;2023-06-14T06:05:09;12.98;;;7.53;;
32535;SDS011;18974;50.838;4.636;2023-06-14T06:07:36;11.40;;;7.13;;
32535;SDS011;18974;50.838;4.636;2023-06-14T06:10:02;17.25;;;7.88;;
32535;SDS011;18974;50.838;4.636;2023-06-14T06:12:29;12.57;;;7.53;;
32535;SDS011;18974;50.838;4.636;2023-06-14T06:14:55;16.13;;;8.00;;
32535;SDS011;18974;50.838;4.636;2023-06-14T06:17:21;15.27;;;7.07;;
32535;SDS011;18974;50.838;4.636;2023-06-14T06:19:46;12.02;;;7.75;;
32535;SDS011;18974;50.838;4.636;2023-06-14T06:22:12;13.80;;;7.53;;
32535;SDS011;18974;50.838;4.636;2023-06-14T06:24:38;13.35;;;7.93;;
32535;SDS011;18974;50.838;4.636;2023-06-14T06:27:03;12.50;;;7.20;;
32535;SDS011;18974;50.838;4.636;2023-06-14T06:29:29;15.15;;;7.10;;
32535;SDS011;18974;50.838;4.636;2023-06-14T06:31:55;10.38;;;7.00;;
32535;SDS011;18974;50.838;4.636;2023-06-14T06:34:21;18.17;;;7.32;;
32535;SDS011;18974;50.838;4.636;2023-06-14T06:36:47;16.38;;;6.97;;
32535;SDS011;18974;50.838;4.636;2023-06-14T06:39:13;11.40;;;6.40;;
32535;SDS011;18974;50.838;4.636;2023-06-14T06:41:40;10.55;;;7.22;;
32535;SDS011;18974;50.838;4.636;2023-06-14T06:44:06;13.30;;;6.75;;
32535;SDS011;18974;50.838;4.636;2023-06-14T06:46:32;11.35;;;6.55;;
32535;SDS011;18974;50.838;4.636;2023-06-14T06:48:58;12.45;;;6.68;;
32535;SDS011;18974;50.838;4.636;2023-06-14T06:51:25;14.50;;;6.80;;
32535;SDS011;18974;50.838;4.636;2023-06-14T06:53:54;8.68;;;6.50;;
32535;SDS011;18974;50.838;4.636;2023-06-14T06:56:20;11.90;;;6.72;;
32535;SDS011;18974;50.838;4.636;2023-06-14T06:58:48;9.38;;;6.93;;
32535;SDS011;18974;50.838;4.636;2023-06-14T07:01:14;8.93;;;5.88;;
32535;SDS011;18974;50.838;4.636;2023-06-14T07:03:40;12.80;;;6.10;;
32535;SDS011;18974;50.838;4.636;2023-06-14T07:06:06;12.75;;;6.10;;
32535;SDS011;18974;50.838;4.636;2023-06-14T07:08:32;8.77;;;5.95;;
32535;SDS011;18974;50.838;4.636;2023-06-14T07:10:57;11.45;;;6.03;;
32535;SDS011;18974;50.838;4.636;2023-06-14T07:13:23;15.57;;;5.85;;
32535;SDS011;18974;50.838;4.636;2023-06-14T07:15:49;12.00;;;6.40;;
32535;SDS011;18974;50.838;4.636;2023-06-14T07:18:15;11.68;;;6.00;;
32535;SDS011;18974;50.838;4.636;2023-06-14T07:20:40;14.55;;;6.50;;
32535;SDS011;18974;50.838;4.636;2023-06-14T07:23:08;8.40;;;6.13;;
32535;SDS011;18974;50.838;4.636;2023-06-14T07:25:33;8.18;;;5.85;;
32535;SDS011;18974;50.838;4.636;2023-06-14T07:27:59;12.05;;;6.78;;
32535;SDS011;18974;50.838;4.636;2023-06-14T07:30:25;11.52;;;5.63;;
32535;SDS011;18974;50.838;4.636;2023-06-14T07:32:52;16.55;;;6.45;;
32535;SDS011;18974;50.838;4.636;2023-06-14T07:35:18;11.38;;;6.00;;
32535;SDS011;18974;50.838;4.636;2023-06-14T07:37:44;12.23;;;5.80;;
32535;SDS011;18974;50.838;4.636;2023-06-14T07:40:12;10.07;;;5.10;;
32535;SDS011;18974;50.838;4.636;2023-06-14T07:42:38;10.45;;;5.40;;
32535;SDS011;18974;50.838;4.636;2023-06-14T07:45:04;12.50;;;5.45;;
32535;SDS011;18974;50.838;4.636;2023-06-14T07:47:30;9.93;;;5.55;;
32535;SDS011;18974;50.838;4.636;2023-06-14T07:49:56;12.75;;;5.45;;
32535;SDS011;18974;50.838;4.636;2023-06-14T07:52:22;14.50;;;5.68;;
32535;SDS011;18974;50.838;4.636;2023-06-14T07:54:47;9.98;;;5.93;;
32535;SDS011;18974;50.838;4.636;2023-06-14T07:57:13;12.20;;;6.05;;
32535;SDS011;18974;50.838;4.636;2023-06-14T07:59:39;8.25;;;5.80;;
32535;SDS011;18974;50.838;4.636;2023-06-14T08:02:05;8.20;;;5.13;;
32535;SDS011;18974;50.838;4.636;2023-06-14T08:04:31;7.50;;;5.03;;
32535;SDS011;18974;50.838;4.636;2023-06-14T08:06:57;13.55;;;6.20;;
32535;SDS011;18974;50.838;4.636;2023-06-14T08:09:24;14.88;;;6.65;;
32535;SDS011;18974;50.838;4.636;2023-06-14T08:11:50;6.32;;;5.28;;
32535;SDS011;18974;50.838;4.636;2023-06-14T08:14:15;10.63;;;6.60;;
32535;SDS011;18974;50.838;4.636;2023-06-14T08:16:41;11.93;;;5.60;;
32535;SDS011;18974;50.838;4.636;2023-06-14T08:19:07;8.45;;;5.80;;
32535;SDS011;18974;50.838;4.636;2023-06-14T08:21:33;10.18;;;5.63;;
32535;SDS011;18974;50.838;4.636;2023-06-14T08:24:01;8.82;;;5.82;;
32535;SDS011;18974;50.838;4.636;2023-06-14T08:26:27;12.90;;;6.05;;
32535;SDS011;18974;50.838;4.636;2023-06-14T08:28:56;10.57;;;5.25;;
32535;SDS011;18974;50.838;4.636;2023-06-14T08:31:22;10.63;;;6.10;;
32535;SDS011;18974;50.838;4.636;2023-06-14T08:33:49;11.65;;;5.32;;
32535;SDS011;18974;50.838;4.636;2023-06-14T08:36:15;16.52;;;5.30;;
32535;SDS011;18974;50.838;4.636;2023-06-14T08:38:41;12.02;;;5.32;;
32535;SDS011;18974;50.838;4.636;2023-06-14T08:41:06;8.80;;;5.10;;
32535;SDS011;18974;50.838;4.636;2023-06-14T08:43:36;14.98;;;6.22;;
32535;SDS011;18974;50.838;4.636;2023-06-14T08:46:03;12.65;;;5.97;;
32535;SDS011;18974;50.838;4.636;2023-06-14T08:48:31;10.40;;;5.88;;
32535;SDS011;18974;50.838;4.636;2023-06-14T08:51:00;9.30;;;6.03;;
32535;SDS011;18974;50.838;4.636;2023-06-14T08:53:29;9.00;;;5.53;;
32535;SDS011;18974;50.838;4.636;2023-06-14T08:55:57;8.57;;;5.70;;
32535;SDS011;18974;50.838;4.636;2023-06-14T08:58:26;8.43;;;5.15;;
32535;SDS011;18974;50.838;4.636;2023-06-14T09:00:54;8.93;;;4.80;;
32535;SDS011;18974;50.838;4.636;2023-06-14T09:03:21;12.02;;;5.22;;
32535;SDS011;18974;50.838;4.636;2023-06-14T09:05:48;8.70;;;5.80;;
32535;SDS011;18974;50.838;4.636;2023-06-14T09:08:15;13.38;;;6.72;;
32535;SDS011;18974;50.838;4.636;2023-06-14T09:10:41;12.60;;;5.63;;
32535;SDS011;18974;50.838;4.636;2023-06-14T09:13:07;11.40;;;5.43;;
32535;SDS011;18974;50.838;4.636;2023-06-14T09:15:33;9.13;;;5.53;;
32535;SDS011;18974;50.838;4.636;2023-06-14T09:18:03;17.90;;;5.57;;
32535;SDS011;18974;50.838;4.636;2023-06-14T09:20:29;13.43;;;5.38;;
32535;SDS011;18974;50.838;4.636;2023-06-14T09:22:56;8.98;;;5.53;;
32535;SDS011;18974;50.838;4.636;2023-06-14T09:25:21;8.05;;;5.30;;
32535;SDS011;18974;50.838;4.636;2023-06-14T09:27:50;16.55;;;5.25;;
32535;SDS011;18974;50.838;4.636;2023-06-14T09:30:17;7.28;;;4.95;;
32535;SDS011;18974;50.838;4.636;2023-06-14T09:32:45;9.43;;;5.50;;
32535;SDS011;18974;50.838;4.636;2023-06-14T09:35:11;11.68;;;4.88;;
32535;SDS011;18974;50.838;4.636;2023-06-14T09:37:37;8.55;;;4.82;;
32535;SDS011;18974;50.838;4.636;2023-06-14T09:40:03;10.10;;;5.05;;
32535;SDS011;18974;50.838;4.636;2023-06-14T09:42:30;9.88;;;4.88;;
32535;SDS011;18974;50.838;4.636;2023-06-14T09:44:57;12.80;;;5.78;;
32535;SDS011;18974;50.838;4.636;2023-06-14T09:47:22;9.40;;;5.07;;
32535;SDS011;18974;50.838;4.636;2023-06-14T09:49:50;10.20;;;4.55;;
32535;SDS011;18974;50.838;4.636;2023-06-14T09:52:19;11.98;;;4.80;;
32535;SDS011;18974;50.838;4.636;2023-06-14T09:54:46;8.80;;;4.80;;
32535;SDS011;18974;50.838;4.636;2023-06-14T09:57:15;8.98;;;4.65;;
32535;SDS011;18974;50.838;4.636;2023-06-14T09:59:45;12.85;;;4.82;;
32535;SDS011;18974;50.838;4.636;2023-06-14T10:05:02;11.25;;;4.90;;
32535;SDS011;18974;50.838;4.636;2023-06-14T10:07:52;14.27;;;5.43;;
32535;SDS011;18974;50.838;4.636;2023-06-14T10:10:29;9.98;;;4.38;;
32535;SDS011;18974;50.838;4.636;2023-06-14T10:12:55;7.80;;;4.53;;
32535;SDS011;18974;50.838;4.636;2023-06-14T10:15:32;10.38;;;4.53;;
32535;SDS011;18974;50.838;4.636;2023-06-14T10:24:00;11.38;;;4.30;;
32535;SDS011;18974;50.838;4.636;2023-06-14T10:26:28;9.85;;;4.70;;
32535;SDS011;18974;50.838;4.636;2023-06-14T10:28:58;8.35;;;4.18;;
32535;SDS011;18974;50.838;4.636;2023-06-14T10:31:58;11.90;;;4.80;;
32535;SDS011;18974;50.838;4.636;2023-06-14T10:34:22;10.40;;;4.13;;
32535;SDS011;18974;50.838;4.636;2023-06-14T10:36:50;5.57;;;3.72;;
32535;SDS011;18974;50.838;4.636;2023-06-14T10:39:29;8.13;;;4.35;;
32535;SDS011;18974;50.838;4.636;2023-06-14T10:41:56;10.32;;;3.90;;
32535;SDS011;18974;50.838;4.636;2023-06-14T10:46:55;11.45;;;4.40;;
32535;SDS011;18974;50.838;4.636;2023-06-14T10:52:11;6.80;;;3.85;;
32535;SDS011;18974;50.838;4.636;2023-06-14T10:57:34;8.70;;;4.07;;
32535;SDS011;18974;50.838;4.636;2023-06-14T11:00:01;8.18;;;3.92;;
32535;SDS011;18974;50.838;4.636;2023-06-14T11:05:25;8.32;;;3.97;;
32535;SDS011;18974;50.838;4.636;2023-06-14T11:10:45;5.28;;;3.38;;
32535;SDS011;18974;50.838;4.636;2023-06-14T11:13:12;7.32;;;4.07;;
32535;SDS011;18974;50.838;4.636;2023-06-14T11:15:38;12.85;;;3.88;;
32535;SDS011;18974;50.838;4.636;2023-06-14T11:18:08;6.82;;;3.80;;
32535;SDS011;18974;50.838;4.636;2023-06-14T11:20:36;6.95;;;3.72;;
32535;SDS011;18974;50.838;4.636;2023-06-14T11:23:03;11.63;;;3.85;;
32535;SDS011;18974;50.838;4.636;2023-06-14T11:25:29;6.57;;;3.33;;
32535;SDS011;18974;50.838;4.636;2023-06-14T11:27:55;10.43;;;3.28;;
32535;SDS011;18974;50.838;4.636;2023-06-14T11:30:21;8.50;;;4.03;;
32535;SDS011;18974;50.838;4.636;2023-06-14T11:32:50;8.48;;;4.15;;
32535;SDS011;18974;50.838;4.636;2023-06-14T11:35:18;12.00;;;3.75;;
32535;SDS011;18974;50.838;4.636;2023-06-14T11:37:47;9.13;;;3.58;;
32535;SDS011;18974;50.838;4.636;2023-06-14T11:40:14;6.68;;;3.65;;
32535;SDS011;18974;50.838;4.636;2023-06-14T11:42:40;6.60;;;3.45;;
32535;SDS011;18974;50.838;4.636;2023-06-14T11:45:07;6.15;;;3.45;;
32535;SDS011;18974;50.838;4.636;2023-06-14T11:47:34;15.57;;;3.83;;
32535;SDS011;18974;50.838;4.636;2023-06-14T11:50:02;7.32;;;3.30;;
32535;SDS011;18974;50.838;4.636;2023-06-14T11:52:28;8.98;;;3.60;;
32535;SDS011;18974;50.838;4.636;2023-06-14T11:54:54;10.68;;;3.47;;
32535;SDS011;18974;50.838;4.636;2023-06-14T11:57:20;7.82;;;3.85;;
32535;SDS011;18974;50.838;4.636;2023-06-14T11:59:46;7.10;;;3.22;;
32535;SDS011;18974;50.838;4.636;2023-06-14T12:02:14;8.85;;;3.90;;
32535;SDS011;18974;50.838;4.636;2023-06-14T12:04:40;12.27;;;3.35;;
32535;SDS011;18974;50.838;4.636;2023-06-14T12:07:10;6.57;;;3.42;;
32535;SDS011;18974;50.838;4.636;2023-06-14T12:09:41;10.02;;;3.38;;
32535;SDS011;18974;50.838;4.636;2023-06-14T12:12:11;5.85;;;3.58;;
32535;SDS011;18974;50.838;4.636;2023-06-14T12:14:37;8.60;;;3.75;;
32535;SDS011;18974;50.838;4.636;2023-06-14T12:17:06;9.45;;;3.75;;
32535;SDS011;18974;50.838;4.636;2023-06-14T12:19:32;8.07;;;3.28;;
32535;SDS011;18974;50.838;4.636;2023-06-14T12:22:01;9.65;;;3.45;;
32535;SDS011;18974;50.838;4.636;2023-06-14T12:24:29;10.45;;;3.17;;
32535;SDS011;18974;50.838;4.636;2023-06-14T12:26:59;10.00;;;3.08;;
32535;SDS011;18974;50.838;4.636;2023-06-14T12:29:27;7.75;;;3.25;;
32535;SDS011;18974;50.838;4.636;2023-06-14T12:31:53;6.22;;;3.22;;
32535;SDS011;18974;50.838;4.636;2023-06-14T12:34:24;8.73;;;3.78;;
32535;SDS011;18974;50.838;4.636;2023-06-14T12:36:50;5.22;;;3.65;;
32535;SDS011;18974;50.838;4.636;2023-06-14T12:39:16;7.43;;;3.08;;
32535;SDS011;18974;50.838;4.636;2023-06-14T12:41:42;13.43;;;3.13;;
32535;SDS011;18974;50.838;4.636;2023-06-14T12:44:07;11.55;;;3.80;;
32535;SDS011;18974;50.838;4.636;2023-06-14T12:46:34;5.88;;;3.22;;
32535;SDS011;18974;50.838;4.636;2023-06-14T12:49:04;7.05;;;3.10;;
32535;SDS011;18974;50.838;4.636;2023-06-14T12:51:31;4.75;;;2.70;;
32535;SDS011;18974;50.838;4.636;2023-06-14T12:53:57;6.05;;;3.10;;
32535;SDS011;18974;50.838;4.636;2023-06-14T12:56:23;8.80;;;2.88;;
32535;SDS011;18974;50.838;4.636;2023-06-14T12:58:48;7.97;;;2.50;;
32535;SDS011;18974;50.838;4.636;2023-06-14T13:01:14;8.23;;;2.75;;
32535;SDS011;18974;50.838;4.636;2023-06-14T13:03:40;10.00;;;4.07;;
32535;SDS011;18974;50.838;4.636;2023-06-14T13:06:05;4.13;;;2.88;;
32535;SDS011;18974;50.838;4.636;2023-06-14T13:08:31;3.65;;;2.70;;
32535;SDS011;18974;50.838;4.636;2023-06-14T13:10:57;4.80;;;2.38;;
32535;SDS011;18974;50.838;4.636;2023-06-14T13:13:25;6.97;;;2.75;;
32535;SDS011;18974;50.838;4.636;2023-06-14T13:15:50;9.77;;;2.80;;
32535;SDS011;18974;50.838;4.636;2023-06-14T13:18:16;5.07;;;2.40;;
32535;SDS011;18974;50.838;4.636;2023-06-14T13:20:42;8.82;;;2.55;;
32535;SDS011;18974;50.838;4.636;2023-06-14T13:23:08;8.60;;;2.70;;
32535;SDS011;18974;50.838;4.636;2023-06-14T13:25:35;8.82;;;2.42;;
32535;SDS011;18974;50.838;4.636;2023-06-14T13:28:03;4.55;;;2.83;;
32535;SDS011;18974;50.838;4.636;2023-06-14T13:30:30;5.88;;;2.85;;
32535;SDS011;18974;50.838;4.636;2023-06-14T13:32:56;4.18;;;2.15;;
32535;SDS011;18974;50.838;4.636;2023-06-14T13:35:23;6.45;;;2.33;;
32535;SDS011;18974;50.838;4.636;2023-06-14T13:37:49;6.47;;;2.25;;
32535;SDS011;18974;50.838;4.636;2023-06-14T13:40:14;3.80;;;2.00;;
32535;SDS011;18974;50.838;4.636;2023-06-14T13:42:40;5.30;;;2.15;;
32535;SDS011;18974;50.838;4.636;2023-06-14T13:45:07;9.27;;;2.28;;
32535;SDS011;18974;50.838;4.636;2023-06-14T13:47:33;2.60;;;1.77;;
32535;SDS011;18974;50.838;4.636;2023-06-14T13:49:59;4.05;;;1.80;;
32535;SDS011;18974;50.838;4.636;2023-06-14T13:52:25;5.00;;;2.05;;
32535;SDS011;18974;50.838;4.636;2023-06-14T13:54:51;4.28;;;1.65;;
32535;SDS011;18974;50.838;4.636;2023-06-14T13:57:17;2.17;;;1.77;;
32535;SDS011;18974;50.838;4.636;2023-06-14T13:59:43;7.25;;;1.83;;
32535;SDS011;18974;50.838;4.636;2023-06-14T14:02:12;7.03;;;1.95;;
32535;SDS011;18974;50.838;4.636;2023-06-14T14:04:38;6.85;;;1.80;;
32535;SDS011;18974;50.838;4.636;2023-06-14T14:07:05;6.75;;;1.55;;
32535;SDS011;18974;50.838;4.636;2023-06-14T14:09:34;4.18;;;1.75;;
32535;SDS011;18974;50.838;4.636;2023-06-14T14:12:00;7.65;;;1.60;;
32535;SDS011;18974;50.838;4.636;2023-06-14T14:14:30;2.92;;;2.05;;
32535;SDS011;18974;50.838;4.636;2023-06-14T14:16:57;4.22;;;1.70;;
32535;SDS011;18974;50.838;4.636;2023-06-14T14:19:23;4.82;;;1.98;;
32535;SDS011;18974;50.838;4.636;2023-06-14T14:21:49;3.85;;;1.70;;
32535;SDS011;18974;50.838;4.636;2023-06-14T14:24:15;5.25;;;1.70;;
32535;SDS011;18974;50.838;4.636;2023-06-14T14:26:41;3.60;;;1.75;;
32535;SDS011;18974;50.838;4.636;2023-06-14T14:29:07;4.70;;;1.58;;
32535;SDS011;18974;50.838;4.636;2023-06-14T14:31:33;4.60;;;1.75;;
32535;SDS011;18974;50.838;4.636;2023-06-14T14:33:59;5.13;;;2.00;;
32535;SDS011;18974;50.838;4.636;2023-06-14T14:36:25;8.40;;;1.80;;
32535;SDS011;18974;50.838;4.636;2023-06-14T14:38:50;4.60;;;1.63;;
32535;SDS011;18974;50.838;4.636;2023-06-14T14:41:19;4.97;;;1.58;;
32535;SDS011;18974;50.838;4.636;2023-06-14T14:43:45;4.57;;;2.15;;
32535;SDS011;18974;50.838;4.636;2023-06-14T14:46:10;7.82;;;1.83;;
32535;SDS011;18974;50.838;4.636;2023-06-14T14:48:36;4.72;;;1.85;;
32535;SDS011;18974;50.838;4.636;2023-06-14T14:51:01;2.88;;;2.15;;
32535;SDS011;18974;50.838;4.636;2023-06-14T14:53:28;5.18;;;1.63;;
32535;SDS011;18974;50.838;4.636;2023-06-14T14:55:54;3.40;;;1.80;;
32535;SDS011;18974;50.838;4.636;2023-06-14T14:58:19;3.08;;;1.88;;
32535;SDS011;18974;50.838;4.636;2023-06-14T15:00:46;4.32;;;1.90;;
32535;SDS011;18974;50.838;4.636;2023-06-14T15:03:12;5.70;;;1.70;;
32535;SDS011;18974;50.838;4.636;2023-06-14T15:05:38;11.05;;;2.00;;